Time;durP1;ratioP1;P1;durP2;ratioP2;P2;SDS_P1;SDS_P2;PMS_P1;PMS_P2;Temp;Humidity;BMP_temperature;BMP_pressure;BME280_temperature;BME280_humidity;BME280_pressure;Samples;Min_cycle;Max_cycle;Signal;HPM_P1;HPM_P2
2023/02/12 00:06:58;;;;;;;23.60;18.60;;;;;;;24.84;14.96;101488.11;106064;1294;67725;-89
2023/02/12 00:12:46;;;;;;;23.10;19.20;;;;;;;24.83;15.12;101499.79;105879;1292;67523;-90
2023/02/12 00:18:36;;;;;;;;;;;;;;;;;;;;;
2023/02/12 00:23:56;;;;;;;24.40;19.90;;;;;;;24.84;15.07;101469.08;106115;1293;67744;-89
2023/02/12 00:29:38;;;;;;;24.10;19.70;;;;;;;24.85;15.02;101479.63;104546;1288;72993;-90
2023/02/12 00:35:34;;;;;;;23.00;18.90;;;;;;;24.85;15.15;101468.61;105857;1294;67011;31
2023/02/12 00:38:51;;;;;;;;;;;;;;;;;;;;;
2023/02/12 00:41:52;;;;;;;;;;;;;;;;;;;;;
2023/02/12 00:47:35;;;;;;;23.50;19.30;;;;;;;24.85;15.12;101477.52;106030;1291;67041;-89
2023/02/12 00:56:41;;;;;;;22.60;18.90;;;;;;;24.85;14.99;101456.98;106063;1290;66938;31
2023/02/12 01:04:55;;;;;;;24.10;19.80;;;;;;;24.86;15.12;101449.30;100837;1295;67081;-90
2023/02/12 01:13:44;;;;;;;24.90;20.40;;;;;;;24.86;15.15;101436.59;106138;1295;72135;-88
2023/02/12 01:19:35;;;;;;;23.70;19.90;;;;;;;24.85;15.12;101429.13;105885;1296;67793;-89
2023/02/12 01:25:26;;;;;;;;;;;;;;;;;;;;;
2023/02/12 01:30:49;;;;;;;25.30;20.30;;;;;;;24.85;15.17;101408.90;106057;1297;67023;-89
2023/02/12 01:36:26;;;;;;;23.90;20.30;;;;;;;24.86;15.06;101379.40;106069;1292;67825;-89
2023/02/12 01:42:03;;;;;;;23.10;19.70;;;;;;;24.86;15.10;101389.44;106061;1292;72859;-89
2023/02/12 01:45:26;;;;;;;24.50;20.30;;;;;;;24.85;14.93;101398.04;106076;1293;68143;-89
2023/02/12 01:51:30;;;;;;;;;;;;;;;;;;;;;
2023/02/12 01:56:55;;;;;;;26.40;21.30;;;;;;;24.85;15.00;101424.03;106085;1292;73083;-90
2023/02/12 02:02:39;;;;;;;;;;;;;;;;;;;;;
2023/02/12 02:05:29;;;;;;;22.40;19.90;;;;;;;24.85;15.12;101436.43;106101;1288;67083;-89
2023/02/12 02:24:08;;;;;;;;;;;;;;;;;;;;;
2023/02/12 02:29:42;;;;;;;25.20;21.10;;;;;;;24.85;15.14;101464.02;106054;1293;67685;-89
2023/02/12 02:35:48;;;;;;;24.30;20.80;;;;;;;24.84;15.12;101448.27;106076;1293;67493;-89
2023/02/12 02:41:48;;;;;;;;;;;;;;;;;;;;;
2023/02/12 02:44:52;;;;;;;;;;;;;;;;;;;;;
2023/02/12 02:50:39;;;;;;;25.90;22.00;;;;;;;24.85;15.18;101480.20;106144;1292;67492;-90
2023/02/12 02:56:30;;;;;;;24.90;20.80;;;;;;;24.85;14.93;101481.37;106027;1292;73240;-90
2023/02/12 03:02:28;;;;;;;;;;;;;;;;;;;;;
2023/02/12 03:05:27;;;;;;;26.70;20.80;;;;;;;24.85;15.11;101500.01;105978;1290;67540;-90
2023/02/12 03:08:43;;;;;;;;;;;;;;;;;;;;;
2023/02/12 03:14:16;;;;;;;26.90;21.40;;;;;;;24.84;14.97;101487.76;106100;1288;68112;-89
2023/02/12 03:20:01;;;;;;;25.20;20.50;;;;;;;24.84;15.13;101504.65;106015;1288;67706;31
2023/02/12 03:26:34;;;;;;;;;;;;;;;;;;;;;
2023/02/12 03:32:16;;;;;;;25.50;21.10;;;;;;;24.85;15.06;101517.35;106100;1294;67561;-89
2023/02/12 03:38:21;;;;;;;;;;;;;;;;;;;;;
2023/02/12 03:43:59;;;;;;;26.00;21.20;;;;;;;24.86;15.01;101518.69;106127;1290;67101;-87
2023/02/12 03:49:41;;;;;;;26.50;22.30;;;;;;;24.87;15.16;101521.94;106311;1293;66979;-91
2023/02/12 03:58:13;;;;;;;25.10;21.70;;;;;;;24.88;14.99;101532.65;106025;1296;67904;-90
2023/02/12 04:06:54;;;;;;;;;;;;;;;;;;;;;
2023/02/12 04:12:47;;;;;;;26.10;21.70;;;;;;;24.88;14.96;101541.77;98730;1295;67666;-91
2023/02/12 04:31:18;;;;;;;;;;;;;;;;;;;;;
2023/02/12 04:34:25;;;;;;;25.20;21.30;;;;;;;24.89;15.13;101554.32;106037;1296;72903;-90
2023/02/12 04:41:06;;;;;;;28.60;22.40;;;;;;;24.89;15.03;101565.09;106175;1288;67003;-87
2023/02/12 04:46:59;;;;;;;;;;;;;;;;;;;;;
2023/02/12 04:52:22;;;;;;;25.90;22.40;;;;;;;24.89;15.01;101575.89;106157;1294;68020;-90
2023/02/12 05:00:43;;;;;;;27.30;22.60;;;;;;;24.90;15.12;101578.83;106148;1296;67701;-89
2023/02/12 05:06:30;;;;;;;;;;;;;;;;;;;;;
2023/02/12 05:11:51;;;;;;;28.50;24.60;;;;;;;24.91;14.93;101582.33;106111;1293;67026;-89
2023/02/12 05:14:51;;;;;;;28.60;23.70;;;;;;;24.91;15.03;101584.02;106067;1292;67661;-89
2023/02/12 05:20:48;;;;;;;26.90;22.90;;;;;;;24.91;15.02;101592.36;106122;1296;67043;-89
2023/02/12 05:26:22;;;;;;;28.20;23.10;;;;;;;24.90;15.07;101606.64;106130;1295;67042;-89
2023/02/12 05:32:08;;;;;;;;;;;;;;;;;;;;;
2023/02/12 05:37:47;;;;;;;;;;;;;;;;;;;;;
2023/02/12 05:45:45;;;;;;;31.70;25.30;;;;;;;24.92;15.08;101648.13;106082;1296;74220;-90
2023/02/12 05:51:46;;;;;;;;;;;;;;;;;;;;;
2023/02/12 05:57:20;;;;;;;;;;;;;;;;;;;;;
2023/02/12 06:03:00;;;;;;;;;;;;;;;;;;;;;
2023/02/12 06:08:23;;;;;;;35.40;27.40;;;;;;;24.92;15.00;101664.95;106212;1287;67148;-89
2023/02/12 06:14:12;;;;;;;;;;;;;;;;;;;;;
2023/02/12 06:19:41;;;;;;;34.00;27.00;;;;;;;24.93;15.04;101672.41;106089;1292;67338;-91
2023/02/12 06:25:22;;;;;;;31.10;26.00;;;;;;;24.93;14.85;101674.32;106074;1296;67737;-89
2023/02/12 06:31:42;;;;;;;30.80;26.00;;;;;;;24.94;14.74;101689.15;106149;1294;67144;-89
2023/02/12 06:37:48;;;;;;;36.70;26.70;;;;;;;24.95;14.92;101690.59;106160;1294;67051;-89
2023/02/12 06:47:11;;;;;;;34.00;26.70;;;;;;;24.98;14.98;101705.23;85558;1296;65864;31
2023/02/12 06:50:43;;;;;;;32.20;26.90;;;;;;;24.97;14.96;101705.29;104980;1293;67259;-90
2023/02/12 07:00:01;;;;;;;37.00;27.00;;;;;;;24.98;14.94;101714.19;106104;1296;72883;-91
2023/02/12 07:05:50;;;;;;;;;;;;;;;;;;;;;
2023/02/12 07:11:28;;;;;;;;;;;;;;;;;;;;;
2023/02/12 07:17:07;;;;;;;33.80;26.40;;;;;;;25.02;14.81;101715.44;105987;1296;67024;-89
2023/02/12 07:22:54;;;;;;;;;;;;;;;;;;;;;
2023/02/12 07:28:36;;;;;;;;;;;;;;;;;;;;;
2023/02/12 07:34:10;;;;;;;;;;;;;;;;;;;;;
2023/02/12 07:39:35;;;;;;;35.60;24.60;;;;;;;25.08;14.84;101743.30;106020;1296;67613;-90
2023/02/12 07:45:20;;;;;;;;;;;;;;;;;;;;;
2023/02/12 07:51:08;;;;;;;;;;;;;;;;;;;;;
2023/02/12 07:56:31;;;;;;;32.70;23.10;;;;;;;25.13;14.82;101761.14;106150;1292;72964;-91
2023/02/12 08:02:06;;;;;;;27.20;22.40;;;;;;;25.14;14.63;101767.90;106032;1296;67620;-90
2023/02/12 08:05:10;;;;;;;33.60;23.00;;;;;;;25.14;14.53;101767.90;106152;1295;67637;-89
2023/02/12 08:08:13;;;;;;;29.10;21.20;;;;;;;25.15;14.62;101770.83;106065;1293;67146;-89
2023/02/12 08:14:05;;;;;;;28.10;21.40;;;;;;;25.16;14.89;101776.91;106084;1295;68144;-89
2023/02/12 08:19:41;;;;;;;24.00;20.30;;;;;;;25.18;14.71;101778.46;104747;1294;67134;-90
2023/02/12 08:25:29;;;;;;;30.40;20.50;;;;;;;25.20;14.85;101778.00;106064;1292;72257;-88
2023/02/12 08:31:17;;;;;;;;;;;;;;;;;;;;;
2023/02/12 08:34:07;;;;;;;29.00;19.40;;;;;;;25.22;14.75;101787.27;106096;1287;67092;-89
2023/02/12 08:40:12;;;;;;;;;;;;;;;;;;;;;
2023/02/12 08:45:42;;;;;;;24.10;17.90;;;;;;;25.24;14.97;101808.58;106050;1293;67677;-90
2023/02/12 08:54:43;;;;;;;25.20;18.20;;;;;;;25.26;14.89;101819.23;106106;1295;72311;-90
2023/02/12 08:57:56;;;;;;;22.50;18.30;;;;;;;25.27;14.92;101827.18;106149;1287;66938;-89
2023/02/12 09:04:21;;;;;;;;;;;;;;;;;;;;;
2023/02/12 09:07:14;;;;;;;24.20;17.40;;;;;;;25.28;14.88;101836.39;106062;1292;67871;-90
2023/02/12 09:10:18;;;;;;;22.20;16.90;;;;;;;25.28;15.10;101842.83;106034;1288;72959;-90
2023/02/12 09:13:35;;;;;;;;;;;;;;;;;;;;;
2023/02/12 09:19:02;;;;;;;26.70;17.70;;;;;;;25.30;14.93;101859.98;106095;1290;67756;-90
2023/02/12 09:24:52;;;;;;;22.60;16.30;;;;;;;25.31;14.90;101869.00;98228;1289;71758;-90
2023/02/12 09:30:40;;;;;;;21.40;15.80;;;;;;;25.32;14.81;101879.47;106042;1293;66953;-90
2023/02/12 09:33:52;;;;;;;21.80;16.00;;;;;;;25.32;14.83;101885.80;106194;1288;67068;-90
2023/02/12 09:39:43;;;;;;;20.30;16.00;;;;;;;25.33;14.89;101888.39;106121;1288;72896;-90
2023/02/12 09:45:47;;;;;;;18.10;15.20;;;;;;;25.35;15.02;101885.77;106044;1294;67508;31
2023/02/12 09:51:53;;;;;;;21.80;15.40;;;;;;;25.36;14.87;101881.81;106172;1288;67837;-89
2023/02/12 09:57:35;;;;;;;23.70;15.10;;;;;;;25.37;14.82;101885.33;106096;1290;67799;-90
2023/02/12 10:06:35;;;;;;;19.50;15.00;;;;;;;25.39;15.00;101891.35;106330;1287;67041;31
2023/02/12 10:09:56;;;;;;;19.80;15.10;;;;;;;25.39;15.10;101896.19;105640;1290;73325;-90
2023/02/12 10:13:22;;;;;;;;;;;;;;;;;;;;;
2023/02/12 10:16:27;;;;;;;;;;;;;;;;;;;;;
2023/02/12 10:20:01;;;;;;;;;;;;;;;;;;;;;
2023/02/12 10:22:54;;;;;;;19.60;14.50;;;;;;;25.41;14.98;101901.25;106119;1292;67688;-89
2023/02/12 10:28:30;;;;;;;22.20;15.00;;;;;;;25.42;14.93;101903.83;106161;1293;67733;-90
2023/02/12 10:34:06;;;;;;;18.30;14.40;;;;;;;25.44;15.01;101911.85;106096;1292;67224;-90
2023/02/12 10:39:53;;;;;;;20.80;14.90;;;;;;;25.45;14.91;101907.63;106145;1294;73090;-89
2023/02/12 10:45:43;;;;;;;;;;;;;;;;;;;;;
2023/02/12 10:51:20;;;;;;;18.10;15.50;;;;;;;25.47;15.00;101905.06;106141;1288;67561;31
2023/02/12 10:54:40;;;;;;;;;;;;;;;;;;;;;
2023/02/12 10:57:40;;;;;;;19.20;15.60;;;;;;;25.48;15.15;101913.79;106138;1288;67547;-90
2023/02/12 11:03:29;;;;;;;20.30;15.70;;;;;;;25.49;15.20;101918.27;106064;1289;68070;-91
2023/02/12 11:06:46;;;;;;;;;;;;;;;;;;;;;
2023/02/12 11:12:48;;;;;;;;;;;;;;;;;;;;;
2023/02/12 11:18:24;;;;;;;19.90;15.00;;;;;;;25.53;15.30;101929.70;106205;1288;67938;-89
2023/02/12 11:24:35;;;;;;;;;;;;;;;;;;;;;
2023/02/12 11:36:45;;;;;;;;;;;;;;;;;;;;;
2023/02/12 11:42:13;;;;;;;16.80;13.70;;;;;;;25.57;15.33;101925.81;106160;1290;67093;-89
2023/02/12 11:48:13;;;;;;;18.20;14.20;;;;;;;25.56;15.46;101931.73;106174;1294;67214;31
2023/02/12 11:57:09;;;;;;;17.80;12.90;;;;;;;25.58;15.62;101935.91;106148;1288;68722;31
2023/02/12 12:02:56;;;;;;;;;;;;;;;;;;;;;
2023/02/12 12:08:17;;;;;;;15.40;12.20;;;;;;;25.61;15.60;101930.78;106098;1295;72372;-90
2023/02/12 12:14:28;;;;;;;;;;;;;;;;;;;;;
2023/02/12 12:20:31;;;;;;;;;;;;;;;;;;;;;
2023/02/12 12:29:02;;;;;;;16.60;12.40;;;;;;;25.68;15.66;101941.27;86512;1299;67405;-91
2023/02/12 12:34:57;;;;;;;15.40;12.70;;;;;;;25.69;15.67;101945.39;106037;1297;67645;-91
2023/02/12 12:40:38;;;;;;;13.90;12.10;;;;;;;25.71;15.71;101945.61;106022;1292;67679;-90
2023/02/12 12:46:15;;;;;;;15.00;12.00;;;;;;;25.72;15.72;101941.07;106079;1292;67221;-89
2023/02/12 12:51:51;;;;;;;18.00;11.90;;;;;;;25.73;15.60;101944.43;106058;1296;72941;-90
2023/02/12 12:57:37;;;;;;;14.30;11.80;;;;;;;25.73;15.97;101946.80;106039;1293;67746;-89
2023/02/12 13:03:37;;;;;;;;;;;;;;;;;;;;;
2023/02/12 13:06:53;;;;;;;14.10;11.30;;;;;;;25.75;15.76;101963.20;106148;1293;72988;-89
2023/02/12 13:10:06;;;;;;;14.20;11.70;;;;;;;25.76;15.89;101966.81;106055;1296;67314;-89
2023/02/12 13:15:51;;;;;;;16.60;11.20;;;;;;;25.78;15.95;101972.73;106027;1292;67248;-90
2023/02/12 13:19:03;;;;;;;16.40;11.50;;;;;;;25.79;15.88;101969.70;106085;1296;67710;-90
2023/02/12 13:25:11;;;;;;;;;;;;;;;;;;;;;
2023/02/12 13:33:30;;;;;;;14.10;11.20;;;;;;;25.85;15.97;101990.05;90783;1292;67046;-90
2023/02/12 13:39:07;;;;;;;14.60;11.20;;;;;;;25.88;15.74;101988.09;106091;1288;67724;-90
2023/02/12 13:42:17;;;;;;;15.90;10.90;;;;;;;25.88;15.78;101988.09;106028;1288;67925;-92
2023/02/12 13:48:29;;;;;;;;;;;;;;;;;;;;;
2023/02/12 13:54:37;;;;;;;;;;;;;;;;;;;;;
2023/02/12 14:03:24;;;;;;;13.60;10.70;;;;;;;25.87;16.02;102005.00;106074;1290;67672;-90
2023/02/12 14:09:50;;;;;;;13.90;11.00;;;;;;;25.87;16.05;102009.70;106016;1292;67120;-90
2023/02/12 14:12:54;;;;;;;13.90;10.80;;;;;;;25.86;16.10;102013.14;105989;1293;67654;-92
2023/02/12 14:15:58;;;;;;;12.90;10.00;;;;;;;25.87;15.78;102018.72;106043;1294;67094;-91
2023/02/12 14:21:51;;;;;;;11.50;9.70;;;;;;;25.86;15.94;102024.48;106044;1294;72749;-90
2023/02/12 14:27:36;;;;;;;14.10;10.70;;;;;;;25.87;15.89;102028.31;106080;1293;67583;-91
2023/02/12 14:33:39;;;;;;;14.00;10.60;;;;;;;25.87;15.99;102026.82;106068;1296;67024;-90
2023/02/12 14:39:17;;;;;;;13.30;10.70;;;;;;;25.87;15.93;102034.50;106027;1292;67934;-91
2023/02/12 14:45:10;;;;;;;13.40;10.10;;;;;;;25.87;15.72;102040.89;106088;1292;67009;-89
2023/02/12 14:50:59;;;;;;;13.20;10.00;;;;;;;25.87;15.59;102045.85;106079;1292;72416;-90
2023/02/12 14:59:30;;;;;;;11.50;10.10;;;;;;;25.87;15.59;102064.87;100979;1288;67569;31
2023/02/12 15:05:38;;;;;;;11.90;9.60;;;;;;;25.87;15.66;102078.33;105791;1289;72967;-91
2023/02/12 15:11:45;;;;;;;13.10;9.90;;;;;;;25.87;15.81;102088.03;106085;1288;67634;-89
2023/02/12 15:14:48;;;;;;;12.60;9.90;;;;;;;25.86;15.69;102094.47;106062;1293;67141;-91
2023/02/12 15:20:40;;;;;;;10.60;9.40;;;;;;;25.86;15.81;102112.77;106052;1292;72931;-90
2023/02/12 15:26:34;;;;;;;12.20;9.50;;;;;;;25.86;15.68;102128.55;106026;1288;67722;-90
2023/02/12 15:32:34;;;;;;;;;;;;;;;;;;;;;
2023/02/12 15:38:29;;;;;;;12.30;9.70;;;;;;;25.87;15.84;102157.42;106090;1294;69612;-90
2023/02/12 15:44:18;;;;;;;12.40;10.20;;;;;;;25.87;15.68;102174.50;105848;1288;67586;31
2023/02/12 15:50:27;;;;;;;;;;;;;;;25.87;15.74;102188.33;106079;1288;72996;-91
2023/02/12 15:56:17;;;;;;;12.50;10.10;;;;;;;25.84;15.73;102203.86;106076;1288;67006;31
2023/02/12 15:59:18;;;;;;;13.70;10.60;;;;;;;25.84;15.55;102214.33;105845;1299;67698;-89
2023/02/12 16:02:21;;;;;;;11.90;10.60;;;;;;;25.84;15.59;102223.15;105981;1291;67195;-89
2023/02/12 16:11:15;;;;;;;13.10;10.70;;;;;;;25.85;15.62;102238.69;86059;1287;5004541;31
2023/02/12 16:14:18;;;;;;;13.30;11.20;;;;;;;25.83;15.63;102237.79;106214;1288;67574;-90
2023/02/12 16:20:13;;;;;;;15.80;12.00;;;;;;;25.84;15.70;102257.70;105981;1291;67691;31
2023/02/12 16:26:17;;;;;;;13.80;11.60;;;;;;;25.84;15.60;102271.72;106230;1288;67552;-89
2023/02/12 16:32:23;;;;;;;15.60;12.20;;;;;;;25.84;15.68;102289.92;106223;1293;72950;31
2023/02/12 16:38:07;;;;;;;16.10;12.30;;;;;;;25.83;15.68;102302.14;106075;1288;67491;31
2023/02/12 16:41:13;;;;;;;16.40;12.70;;;;;;;25.82;15.64;102306.56;106234;1293;67242;-91
2023/02/12 16:47:18;;;;;;;17.10;13.10;;;;;;;25.81;15.72;102307.75;106297;1288;73120;-90
2023/02/12 16:53:04;;;;;;;18.60;12.80;;;;;;;25.81;15.61;102313.22;106296;1290;67016;31
2023/02/12 16:59:01;;;;;;;17.50;13.00;;;;;;;25.80;15.72;102319.08;106214;1286;66965;31
2023/02/12 17:05:06;;;;;;;18.70;13.60;;;;;;;25.80;15.62;102326.34;106231;1287;67614;31
2023/02/12 17:19:31;;;;;;;;;;;;;;;;;;;;;
2023/02/12 17:25:32;;;;;;;;;;;;;;;;;;;;;
2023/02/12 17:32:14;;;;;;;;;;;;;;;;;;;;;
2023/02/12 17:37:52;;;;;;;22.40;17.70;;;;;;;25.78;15.96;102367.36;106156;1289;67834;31
2023/02/12 17:43:52;;;;;;;22.50;17.90;;;;;;;25.76;15.80;102375.23;106230;1287;67661;31
2023/02/12 17:49:38;;;;;;;21.80;19.00;;;;;;;25.76;16.05;102387.66;106172;1293;67505;-89
2023/02/12 17:52:52;;;;;;;23.70;19.90;;;;;;;25.75;16.02;102393.70;106155;1293;67757;-90
2023/02/12 17:55:52;;;;;;;23.80;19.40;;;;;;;25.75;16.14;102401.48;106169;1288;67330;-90
2023/02/12 17:58:55;;;;;;;25.30;20.50;;;;;;;25.76;16.08;102408.75;105292;1288;67810;-89
2023/02/12 18:04:52;;;;;;;26.70;20.40;;;;;;;25.75;15.81;102411.64;106169;1294;67968;-90
2023/02/12 18:10:33;;;;;;;26.60;20.30;;;;;;;25.75;16.02;102428.24;106142;1294;67519;-92
2023/02/12 18:19:10;;;;;;;;;;;;;;;;;;;;;
2023/02/12 18:24:48;;;;;;;;;;;;;;;;;;;;;
2023/02/12 18:30:09;;;;;;;26.40;22.30;;;;;;;25.72;16.13;102466.20;106184;1290;73080;-89
2023/02/12 18:35:56;;;;;;;;;;;;;;;;;;;;;
2023/02/12 18:41:35;;;;;;;;;;;;;;;;;;;;;
2023/02/12 18:49:44;;;;;;;30.50;24.00;;;;;;;25.68;16.27;102485.53;106290;1286;67100;-90
2023/02/12 18:58:41;;;;;;;29.80;23.10;;;;;;;25.67;16.18;102493.30;106273;1286;73003;31
2023/02/12 19:04:38;;;;;;;29.70;24.50;;;;;;;25.66;16.24;102497.88;106216;1286;68192;-90
2023/02/12 19:07:41;;;;;;;26.10;22.40;;;;;;;25.65;16.26;102504.16;106018;1288;67555;-91
2023/02/12 19:13:37;;;;;;;31.70;23.20;;;;;;;25.65;16.44;102507.63;105989;1286;73079;-87
2023/02/12 19:19:35;;;;;;;27.80;22.70;;;;;;;25.64;16.22;102516.06;106252;1288;67639;-90
2023/02/12 19:25:41;;;;;;;;;;;;;;;;;;;;;
2023/02/12 19:34:32;;;;;;;27.60;23.00;;;;;;;25.63;16.19;102524.56;106246;1293;67021;31
2023/02/12 19:37:32;;;;;;;27.90;22.10;;;;;;;25.63;15.99;102521.41;106320;1288;67230;-89
2023/02/12 19:44:00;;;;;;;28.50;22.70;;;;;;;25.62;16.11;102519.65;106312;1286;72708;-88
2023/02/12 19:47:15;;;;;;;;;;;;;;;;;;;;;
2023/02/12 19:50:09;;;;;;;26.50;21.20;;;;;;;25.62;16.21;102529.14;106298;1294;67115;-90
2023/02/12 19:53:08;;;;;;;29.60;22.80;;;;;;;25.61;16.20;102527.73;106336;1292;67121;-92
2023/02/12 19:59:14;;;;;;;;;;;;;;;;;;;;;
2023/02/12 20:04:33;;;;;;;27.50;22.20;;;;;;;25.61;15.98;102534.95;106146;1286;67850;-90
2023/02/12 20:10:39;;;;;;;25.40;21.40;;;;;;;25.60;16.22;102536.84;106112;1286;67204;-90
2023/02/12 20:16:16;;;;;;;28.70;22.10;;;;;;;25.60;16.17;102538.48;106099;1287;67746;-90
2023/02/12 20:24:40;;;;;;;28.30;23.50;;;;;;;25.60;16.20;102541.58;106171;1290;67508;-91
2023/02/12 20:34:17;;;;;;;29.30;24.10;;;;;;;25.60;16.02;102545.64;106192;1291;66975;31
2023/02/12 20:40:14;;;;;;;28.60;24.20;;;;;;;25.59;16.22;102552.39;106034;1287;67544;31
2023/02/12 20:46:21;;;;;;;29.00;24.80;;;;;;;25.59;16.25;102556.41;106191;1288;68022;-90
2023/02/12 20:55:08;;;;;;;31.90;27.20;;;;;;;25.59;16.30;102561.82;106202;1293;67627;-91
2023/02/12 21:01:08;;;;;;;35.50;28.50;;;;;;;25.58;16.30;102565.89;106195;1294;66922;-92
2023/02/12 21:07:11;;;;;;;;;;;;;;;;;;;;;
2023/02/12 21:18:21;;;;;;;;;;;;;;;;;;;;;
2023/02/12 21:23:45;;;;;;;32.70;27.80;;;;;;;25.58;16.23;102583.61;106191;1293;66972;-89
2023/02/12 21:29:26;;;;;;;34.10;27.20;;;;;;;25.58;16.25;102578.56;106164;1294;67104;-90
2023/02/12 21:35:06;;;;;;;32.80;28.60;;;;;;;25.58;16.37;102579.45;106128;1291;67092;-92
2023/02/12 21:40:54;;;;;;;;;;;;;;;;;;;;;
2023/02/12 21:46:29;;;;;;;;;;;;;;;;;;;;;
2023/02/12 21:49:28;;;;;;;33.30;28.20;;;;;;;25.58;16.08;102595.01;106412;1289;67762;-90
2023/02/12 21:55:29;;;;;;;;;;;;;;;;;;;;;
2023/02/12 22:00:57;;;;;;;32.30;27.40;;;;;;;25.57;16.16;102594.73;105916;1286;67103;31
2023/02/12 22:09:14;;;;;;;32.70;26.10;;;;;;;25.58;16.12;102601.34;106216;1293;74221;-90
2023/02/12 22:15:01;;;;;;;33.50;27.10;;;;;;;25.57;16.18;102601.13;106129;1290;67678;-90
2023/02/12 22:24:00;;;;;;;32.60;26.80;;;;;;;25.56;16.05;102613.80;106164;1293;72870;-89
2023/02/12 22:29:52;;;;;;;31.00;25.90;;;;;;;25.56;16.00;102623.53;106094;1290;67580;-90
2023/02/12 22:35:37;;;;;;;;;;;;;;;;;;;;;
2023/02/12 22:41:03;;;;;;;30.10;24.30;;;;;;;25.56;16.15;102617.45;106125;1292;67610;-90
2023/02/12 22:52:08;;;;;;;28.50;23.70;;;;;;;25.57;16.17;102621.08;106214;1293;72848;-90
2023/02/12 22:57:50;;;;;;;29.60;24.20;;;;;;;25.56;16.20;102616.16;106209;1288;67772;-88
2023/02/12 23:03:39;;;;;;;;;;;;;;;;;;;;;
2023/02/12 23:11:46;;;;;;;26.40;22.10;;;;;;;25.56;16.10;102627.80;106189;1292;67737;-89
2023/02/12 23:17:28;;;;;;;;;;;;;;;;;;;;;
2023/02/12 23:22:52;;;;;;;26.60;22.40;;;;;;;25.56;16.07;102622.24;106071;1292;67300;-90
2023/02/12 23:28:28;;;;;;;27.60;22.20;;;;;;;25.56;15.92;102627.44;106148;1292;67511;-90
2023/02/12 23:31:38;;;;;;;;;;;;;;;;;;;;;
2023/02/12 23:37:27;;;;;;;;;;;;;;;;;;;;;
2023/02/12 23:43:03;;;;;;;;;;;;;;;;;;;;;
2023/02/12 23:48:47;;;;;;;;;;;;;;;;;;;;;
2023/02/12 23:51:36;;;;;;;28.10;23.50;;;;;;;25.56;15.93;102640.02;106217;1287;67628;-90
2023/02/12 23:57:52;;;;;;;;;;;;;;;;;;;;;
